Details From PAFE - KAKE
To PAHN - HAINES
Flight Number -
Tags decoded
Created
Modified
Stats Distance 146 nm / 271 km
Max Altitude 0 ft / 0 m
Waypoints 2
Social Downloads 1
Likes 0
Share VATSIM

Download

Looking for another format? Having issues loading an existing format? Contact us
Advertisement - Login to hide

Notes

Requested: PAFE PAHN

Route

PAFE PAHN

ID Type Via Altitude Latitude Longitude Leg Dist Tot Dist Heading (true) Name
O PAFE APT - 0 ft / 0 m 56.96136˚ -133.91026˚ - 0 nm - KAKE
O PAHN APT - 0 ft / 0 m 59.24383˚ -135.52354˚ 146 nm 146 nm 340° / 339° HAINES

Altitude Profile

Advertisement - Login to hide

PAFE

Details ICAO PAFE (AFE)
Name KAKE
Region USA (Alaska)
Timezone America/Juneau (UTC-9.0)
Stats Elevation 172 ft / 52 m (AMSL)
Location 56.961362° -133.910261°
Runways 1
Magnetic Variation 18.851° E

METAR

PAFE 140756Z AUTO 10013G20KT 10SM -RA FEW028 SCT047 OVC070 08/06 A3001 RMK AO2 PRESFR SLP176 P0002 T00780061

Decode

TAF

Not found

Departure Runways

ID Width Length Bearing (true) Bearing (mag) Surface Threshold Offset Overrun Length
10 100 ft / 30 m 3,990 ft / 1,216 m 129.93° 111.08° Asphalt 0 ft / 0 m 295 ft / 90 m
28 100 ft / 30 m 3,990 ft / 1,216 m 309.94° 291.09° Asphalt 1,000 ft / 305 m 295 ft / 90 m

PAHN

Details ICAO PAHN (HNS)
Name HAINES
Region USA (Alaska)
Timezone Unknown (UTC+0.0)
Stats Elevation 15 ft / 5 m (AMSL)
Location 59.243829° -135.523538°
Runways 1
Magnetic Variation 19.273° E

METAR

PAHN 140754Z AUTO 06012G18KT 010V090 4SM -RA BR OVC035 08/06 A2994 RMK SLP142 P0012 T00780061 TSNO VIA AUTODIAL

Decode

TAF

TAF PAHN 140531Z 1406/1506 08010KT 4SM RA BR OVC025 FM140900 09015G25KT 5SM -RA BR OVC015 FM142200 09010KT 5SM -RA BR SCT015 OVC025 AMD LTD TO CLD VIS AND WIND

Decode

Destination Runways

ID Width Length Bearing (true) Bearing (mag) Surface Threshold Offset Overrun Length
08 100 ft / 30 m 3,988 ft / 1,216 m 110.17° 90.90° Asphalt 0 ft / 0 m 300 ft / 91 m
26 100 ft / 30 m 3,988 ft / 1,216 m 290.19° 270.92° Asphalt 1,000 ft / 305 m 300 ft / 91 m

Popular Alternatives